»·PEaware :: N973SE KPSP-KSNA

N973SE :: KPSP-KSNA

FLIGHT INFORMATION

Flight Status: Arrived
Operator: Privately registered:
United States
More flights under this callsign
Pilot: Stig E. (4778)
Aircraft: CESSNA 172 SKYHAWK
(C172)
More flights by this aircraft type
Origin: KPSP Palm Springs Intl
United States
Destination: KSNA John Wayne-Orange Co
United States
More flights between these airports :: More routes between these airports
Route: DEWAY MINOE
File this flight plan on PilotEdge
Remarks:
Altitude:
(Current/Filed)
6,500ft
Speed:
(Current/Filed)
110kts
Departed: 14-Mar-19 11:51 PM
Arrived: 15-Mar-19 12:41 AM
Distance/Time
Traveled:
69nm/0:49
Distance/Time
To Go:
Arrived

Flight Plot

Page will automatically refresh every two minutes.

Flight plan parsing failed; only flown route is shown


Map Options




Map Legend


Flown Route
Filed Route
Departure Airport
Arrival Airport
Navaid (VOR, NDB)
Fix

Horizontal Profiles

Position Reports

Time Latitude Longitude Heading Altitude Ground
Speed
14-Mar-19 23:44 33.826636 -116.509377 269 424ft 0kts
14-Mar-19 23:45 33.826636 -116.509377 269 424ft 0kts
14-Mar-19 23:46 33.826636 -116.509377 269 424ft 0kts
14-Mar-19 23:47 33.826636 -116.509377 269 424ft 0kts
14-Mar-19 23:48 33.826636 -116.509377 269 424ft 0kts
14-Mar-19 23:49 33.824014 -116.505620 144 413ft 29kts
14-Mar-19 23:50 33.818443 -116.499696 145 398ft 12kts
14-Mar-19 23:51 33.822290 -116.501135 324 408ft 69kts
14-Mar-19 23:51 33.835694 -116.513565 321 1144ft 76kts
14-Mar-19 23:53 33.854480 -116.533524 292 2246ft 79kts
14-Mar-19 23:54 33.862189 -116.558305 291 3147ft 79kts
14-Mar-19 23:54 33.868412 -116.579281 291 3861ft 79kts
14-Mar-19 23:55 33.878818 -116.602665 302 4624ft 79kts
14-Mar-19 23:57 33.892206 -116.629196 304 5384ft 80kts
14-Mar-19 23:57 33.901981 -116.648396 305 5903ft 81kts
14-Mar-19 23:58 33.913902 -116.671788 306 6471ft 85kts
14-Mar-19 23:59 33.929448 -116.702246 305 6485ft 119kts
15-Mar-19 00:00 33.946141 -116.737166 282 6471ft 122kts
15-Mar-19 00:01 33.942079 -116.778703 262 6464ft 126kts
15-Mar-19 00:02 33.935203 -116.820664 261 6452ft 127kts
15-Mar-19 00:03 33.928134 -116.863009 261 6441ft 129kts
15-Mar-19 00:04 33.920949 -116.905907 261 6435ft 130kts
15-Mar-19 00:05 33.913849 -116.948173 262 6436ft 125kts
15-Mar-19 00:06 33.906950 -116.989227 262 6438ft 123kts
15-Mar-19 00:07 33.900106 -117.029837 262 6438ft 123kts
15-Mar-19 00:08 33.893283 -117.070240 262 6437ft 122kts
15-Mar-19 00:09 33.886452 -117.110524 262 6436ft 122kts
15-Mar-19 00:10 33.879650 -117.150579 262 6435ft 121kts
15-Mar-19 00:11 33.872847 -117.190602 262 6436ft 122kts
15-Mar-19 00:12 33.866046 -117.230538 261 6437ft 122kts
15-Mar-19 00:13 33.859193 -117.270695 261 6438ft 122kts
15-Mar-19 00:14 33.852327 -117.310850 261 6439ft 122kts
15-Mar-19 00:15 33.845457 -117.351063 261 6439ft 122kts
15-Mar-19 00:16 33.838582 -117.391143 262 6441ft 123kts
15-Mar-19 00:17 33.821805 -117.424405 221 6443ft 127kts
15-Mar-19 00:18 33.794474 -117.452184 221 6443ft 129kts
15-Mar-19 00:19 33.766834 -117.480251 221 6444ft 129kts
15-Mar-19 00:20 33.739169 -117.508317 221 6445ft 130kts
15-Mar-19 00:21 33.714249 -117.539555 244 6444ft 130kts
15-Mar-19 00:22 33.700598 -117.579868 252 6412ft 133kts
15-Mar-19 00:23 33.687073 -117.624771 251 5928ft 147kts
15-Mar-19 00:24 33.673082 -117.671348 251 5427ft 147kts
15-Mar-19 00:25 33.660446 -117.713388 251 4904ft 127kts
15-Mar-19 00:26 33.648607 -117.752692 250 4433ft 117kts
15-Mar-19 00:27 33.638290 -117.786902 250 3913ft 102kts
15-Mar-19 00:28 33.628760 -117.818465 250 3401ft 96kts
15-Mar-19 00:29 33.619893 -117.847783 249 2892ft 91kts
15-Mar-19 00:30 33.610982 -117.876272 249 2390ft 91kts
15-Mar-19 00:31 33.603898 -117.899167 249 2011ft 88kts
15-Mar-19 00:32 33.598898 -117.916029 265 2002ft 72kts
15-Mar-19 00:33 33.596894 -117.938385 191 2007ft 78kts
15-Mar-19 00:34 33.579567 -117.931298 96 1998ft 62kts
15-Mar-19 00:35 33.593647 -117.919555 27 1802ft 71kts
15-Mar-19 00:36 33.611979 -117.908965 30 1368ft 70kts
15-Mar-19 00:37 33.628805 -117.898510 31 872ft 65kts
15-Mar-19 00:38 33.644543 -117.888477 32 505ft 62kts
15-Mar-19 00:39 33.659424 -117.879006 28 259ft 60kts
15-Mar-19 00:40 33.671466 -117.871629 20 60ft 19kts
15-Mar-19 00:41 33.671862 -117.873368 205 60ft 0kts

Navigation Log

Ident Type
Flight plan parsing failed, navigation log unavailable